sensor_id;sensor_type;location;lat;lon;timestamp;P1;durP1;ratioP1;P2;durP2;ratioP2
54945;SDS011;40846;44.788;20.486;2022-12-01T00:01:28;3.55;;;1.52;;
54945;SDS011;40846;44.788;20.486;2022-12-01T00:03:54;5.85;;;2.30;;
54945;SDS011;40846;44.788;20.486;2022-12-01T00:06:20;5.15;;;2.13;;
54945;SDS011;40846;44.788;20.486;2022-12-01T00:08:49;3.45;;;1.50;;
54945;SDS011;40846;44.788;20.486;2022-12-01T00:11:34;3.88;;;1.90;;
54945;SDS011;40846;44.788;20.486;2022-12-01T00:14:01;3.85;;;1.52;;
54945;SDS011;40846;44.788;20.486;2022-12-01T00:16:28;5.72;;;2.17;;
54945;SDS011;40846;44.788;20.486;2022-12-01T00:18:54;4.75;;;1.83;;
54945;SDS011;40846;44.788;20.486;2022-12-01T00:21:21;3.90;;;1.77;;
54945;SDS011;40846;44.788;20.486;2022-12-01T00:23:51;5.22;;;2.03;;
54945;SDS011;40846;44.788;20.486;2022-12-01T00:29:08;3.47;;;1.77;;
54945;SDS011;40846;44.788;20.486;2022-12-01T00:31:34;5.90;;;1.73;;
54945;SDS011;40846;44.788;20.486;2022-12-01T00:34:00;4.85;;;2.03;;
54945;SDS011;40846;44.788;20.486;2022-12-01T00:36:26;5.13;;;1.88;;
54945;SDS011;40846;44.788;20.486;2022-12-01T00:38:53;2.97;;;1.42;;
54945;SDS011;40846;44.788;20.486;2022-12-01T00:41:20;3.67;;;1.75;;
54945;SDS011;40846;44.788;20.486;2022-12-01T00:43:46;6.10;;;1.70;;
54945;SDS011;40846;44.788;20.486;2022-12-01T00:46:15;3.53;;;1.58;;
54945;SDS011;40846;44.788;20.486;2022-12-01T00:48:44;6.93;;;1.25;;
54945;SDS011;40846;44.788;20.486;2022-12-01T00:51:10;4.05;;;1.50;;
54945;SDS011;40846;44.788;20.486;2022-12-01T00:53:36;3.15;;;1.40;;
54945;SDS011;40846;44.788;20.486;2022-12-01T00:56:01;3.03;;;1.48;;
54945;SDS011;40846;44.788;20.486;2022-12-01T00:58:27;3.53;;;1.60;;
54945;SDS011;40846;44.788;20.486;2022-12-01T01:00:56;3.35;;;1.58;;
54945;SDS011;40846;44.788;20.486;2022-12-01T01:03:24;2.72;;;1.30;;
54945;SDS011;40846;44.788;20.486;2022-12-01T01:05:53;3.00;;;1.42;;
54945;SDS011;40846;44.788;20.486;2022-12-01T01:08:18;3.13;;;1.45;;
54945;SDS011;40846;44.788;20.486;2022-12-01T01:10:45;2.17;;;1.00;;
54945;SDS011;40846;44.788;20.486;2022-12-01T01:13:13;3.40;;;1.15;;
54945;SDS011;40846;44.788;20.486;2022-12-01T01:15:39;3.40;;;1.25;;
54945;SDS011;40846;44.788;20.486;2022-12-01T01:18:05;3.40;;;1.27;;
54945;SDS011;40846;44.788;20.486;2022-12-01T01:20:33;3.00;;;1.15;;
54945;SDS011;40846;44.788;20.486;2022-12-01T01:22:59;2.25;;;1.25;;
54945;SDS011;40846;44.788;20.486;2022-12-01T01:25:25;2.42;;;1.10;;
54945;SDS011;40846;44.788;20.486;2022-12-01T01:27:51;1.75;;;0.95;;
54945;SDS011;40846;44.788;20.486;2022-12-01T01:30:17;1.30;;;0.70;;
54945;SDS011;40846;44.788;20.486;2022-12-01T01:32:42;2.40;;;1.23;;
54945;SDS011;40846;44.788;20.486;2022-12-01T01:35:08;3.42;;;1.20;;
54945;SDS011;40846;44.788;20.486;2022-12-01T01:37:34;2.17;;;1.02;;
54945;SDS011;40846;44.788;20.486;2022-12-01T01:40:00;3.40;;;1.10;;
54945;SDS011;40846;44.788;20.486;2022-12-01T01:42:26;1.48;;;0.70;;
54945;SDS011;40846;44.788;20.486;2022-12-01T01:44:53;1.67;;;0.70;;
54945;SDS011;40846;44.788;20.486;2022-12-01T01:47:27;1.65;;;0.80;;
54945;SDS011;40846;44.788;20.486;2022-12-01T01:49:59;2.03;;;0.98;;
54945;SDS011;40846;44.788;20.486;2022-12-01T01:52:33;2.10;;;0.98;;
54945;SDS011;40846;44.788;20.486;2022-12-01T01:55:00;2.20;;;0.85;;
54945;SDS011;40846;44.788;20.486;2022-12-01T01:57:30;1.73;;;0.77;;
54945;SDS011;40846;44.788;20.486;2022-12-01T02:00:00;2.22;;;0.70;;
54945;SDS011;40846;44.788;20.486;2022-12-01T02:02:32;1.77;;;0.70;;
54945;SDS011;40846;44.788;20.486;2022-12-01T02:07:35;2.13;;;0.60;;
54945;SDS011;40846;44.788;20.486;2022-12-01T02:10:06;6.53;;;0.80;;
54945;SDS011;40846;44.788;20.486;2022-12-01T02:15:23;2.28;;;0.80;;
54945;SDS011;40846;44.788;20.486;2022-12-01T02:23:27;2.30;;;1.00;;
54945;SDS011;40846;44.788;20.486;2022-12-01T02:29:03;1.45;;;0.70;;
54945;SDS011;40846;44.788;20.486;2022-12-01T02:40:33;2.83;;;1.00;;
54945;SDS011;40846;44.788;20.486;2022-12-01T02:43:23;2.60;;;0.98;;
54945;SDS011;40846;44.788;20.486;2022-12-01T02:46:01;0.88;;;0.57;;
54945;SDS011;40846;44.788;20.486;2022-12-01T02:48:33;1.20;;;0.60;;
54945;SDS011;40846;44.788;20.486;2022-12-01T02:51:16;1.52;;;0.57;;
54945;SDS011;40846;44.788;20.486;2022-12-01T02:53:49;1.27;;;0.80;;
54945;SDS011;40846;44.788;20.486;2022-12-01T02:56:18;3.13;;;1.05;;
54945;SDS011;40846;44.788;20.486;2022-12-01T02:58:45;1.35;;;0.70;;
54945;SDS011;40846;44.788;20.486;2022-12-01T03:03:56;1.58;;;0.55;;
54945;SDS011;40846;44.788;20.486;2022-12-01T03:06:41;1.77;;;0.70;;
54945;SDS011;40846;44.788;20.486;2022-12-01T03:17:37;1.65;;;0.70;;
54945;SDS011;40846;44.788;20.486;2022-12-01T03:23:09;2.22;;;0.65;;
54945;SDS011;40846;44.788;20.486;2022-12-01T03:25:40;1.20;;;0.60;;
54945;SDS011;40846;44.788;20.486;2022-12-01T03:28:10;1.00;;;0.50;;
54945;SDS011;40846;44.788;20.486;2022-12-01T03:30:39;2.88;;;1.02;;
54945;SDS011;40846;44.788;20.486;2022-12-01T03:33:13;4.43;;;0.77;;
54945;SDS011;40846;44.788;20.486;2022-12-01T03:35:54;2.63;;;0.90;;
54945;SDS011;40846;44.788;20.486;2022-12-01T03:38:26;3.22;;;1.00;;
54945;SDS011;40846;44.788;20.486;2022-12-01T03:41:00;2.45;;;1.25;;
54945;SDS011;40846;44.788;20.486;2022-12-01T03:43:33;1.83;;;0.98;;
54945;SDS011;40846;44.788;20.486;2022-12-01T03:46:06;2.53;;;1.02;;
54945;SDS011;40846;44.788;20.486;2022-12-01T03:48:51;4.40;;;1.45;;
54945;SDS011;40846;44.788;20.486;2022-12-01T03:51:20;1.85;;;1.02;;
54945;SDS011;40846;44.788;20.486;2022-12-01T03:56:43;2.00;;;0.95;;
54945;SDS011;40846;44.788;20.486;2022-12-01T03:59:17;2.75;;;1.10;;
54945;SDS011;40846;44.788;20.486;2022-12-01T04:01:44;2.97;;;1.23;;
54945;SDS011;40846;44.788;20.486;2022-12-01T04:04:11;2.58;;;1.00;;
54945;SDS011;40846;44.788;20.486;2022-12-01T04:06:42;2.60;;;1.00;;
54945;SDS011;40846;44.788;20.486;2022-12-01T04:09:11;1.63;;;0.75;;
54945;SDS011;40846;44.788;20.486;2022-12-01T04:11:39;1.63;;;1.00;;
54945;SDS011;40846;44.788;20.486;2022-12-01T04:14:23;4.18;;;1.65;;
54945;SDS011;40846;44.788;20.486;2022-12-01T04:16:49;1.75;;;0.90;;
54945;SDS011;40846;44.788;20.486;2022-12-01T04:19:15;1.20;;;0.68;;
54945;SDS011;40846;44.788;20.486;2022-12-01T04:21:41;1.77;;;0.80;;
54945;SDS011;40846;44.788;20.486;2022-12-01T04:24:07;1.75;;;0.60;;
54945;SDS011;40846;44.788;20.486;2022-12-01T04:26:34;3.20;;;1.20;;
54945;SDS011;40846;44.788;20.486;2022-12-01T04:29:02;1.88;;;0.90;;
54945;SDS011;40846;44.788;20.486;2022-12-01T04:31:29;1.85;;;0.90;;
54945;SDS011;40846;44.788;20.486;2022-12-01T04:33:56;2.25;;;1.20;;
54945;SDS011;40846;44.788;20.486;2022-12-01T04:36:22;2.33;;;0.95;;
54945;SDS011;40846;44.788;20.486;2022-12-01T04:38:49;1.88;;;0.80;;
54945;SDS011;40846;44.788;20.486;2022-12-01T04:41:15;2.05;;;0.85;;
54945;SDS011;40846;44.788;20.486;2022-12-01T04:43:40;1.58;;;0.85;;
54945;SDS011;40846;44.788;20.486;2022-12-01T04:46:07;2.13;;;0.95;;
54945;SDS011;40846;44.788;20.486;2022-12-01T04:48:33;3.30;;;0.98;;
54945;SDS011;40846;44.788;20.486;2022-12-01T04:51:01;2.65;;;1.02;;
54945;SDS011;40846;44.788;20.486;2022-12-01T04:53:27;4.40;;;1.42;;
54945;SDS011;40846;44.788;20.486;2022-12-01T04:55:53;2.90;;;1.10;;
54945;SDS011;40846;44.788;20.486;2022-12-01T04:58:19;2.95;;;1.13;;
54945;SDS011;40846;44.788;20.486;2022-12-01T05:00:44;3.20;;;1.33;;
54945;SDS011;40846;44.788;20.486;2022-12-01T05:03:10;2.20;;;1.27;;
54945;SDS011;40846;44.788;20.486;2022-12-01T05:05:36;2.22;;;0.98;;
54945;SDS011;40846;44.788;20.486;2022-12-01T05:08:02;2.72;;;1.55;;
54945;SDS011;40846;44.788;20.486;2022-12-01T05:10:28;2.25;;;1.05;;
54945;SDS011;40846;44.788;20.486;2022-12-01T05:12:53;3.78;;;1.40;;
54945;SDS011;40846;44.788;20.486;2022-12-01T05:15:21;1.92;;;1.00;;
54945;SDS011;40846;44.788;20.486;2022-12-01T05:17:47;2.45;;;1.17;;
54945;SDS011;40846;44.788;20.486;2022-12-01T05:20:17;1.88;;;0.90;;
54945;SDS011;40846;44.788;20.486;2022-12-01T05:23:03;2.85;;;1.50;;
54945;SDS011;40846;44.788;20.486;2022-12-01T05:25:29;2.33;;;1.23;;
54945;SDS011;40846;44.788;20.486;2022-12-01T05:27:55;1.88;;;0.93;;
54945;SDS011;40846;44.788;20.486;2022-12-01T05:30:21;3.30;;;1.00;;
54945;SDS011;40846;44.788;20.486;2022-12-01T05:32:49;3.10;;;1.48;;
54945;SDS011;40846;44.788;20.486;2022-12-01T05:35:14;3.45;;;1.50;;
54945;SDS011;40846;44.788;20.486;2022-12-01T05:37:40;2.72;;;1.30;;
54945;SDS011;40846;44.788;20.486;2022-12-01T05:40:06;2.22;;;1.10;;
54945;SDS011;40846;44.788;20.486;2022-12-01T05:42:32;2.25;;;0.90;;
54945;SDS011;40846;44.788;20.486;2022-12-01T05:44:58;3.28;;;1.40;;
54945;SDS011;40846;44.788;20.486;2022-12-01T05:47:24;2.85;;;1.25;;
54945;SDS011;40846;44.788;20.486;2022-12-01T05:49:49;4.55;;;1.48;;
54945;SDS011;40846;44.788;20.486;2022-12-01T05:52:15;8.82;;;3.08;;
54945;SDS011;40846;44.788;20.486;2022-12-01T05:54:41;5.85;;;2.53;;
54945;SDS011;40846;44.788;20.486;2022-12-01T05:57:07;5.43;;;1.70;;
54945;SDS011;40846;44.788;20.486;2022-12-01T05:59:33;3.60;;;1.60;;
54945;SDS011;40846;44.788;20.486;2022-12-01T06:01:59;5.25;;;1.90;;
54945;SDS011;40846;44.788;20.486;2022-12-01T06:04:24;2.90;;;1.38;;
54945;SDS011;40846;44.788;20.486;2022-12-01T06:06:50;4.03;;;1.90;;
54945;SDS011;40846;44.788;20.486;2022-12-01T06:09:16;3.33;;;1.60;;
54945;SDS011;40846;44.788;20.486;2022-12-01T06:11:41;6.30;;;2.22;;
54945;SDS011;40846;44.788;20.486;2022-12-01T06:14:07;7.57;;;2.97;;
54945;SDS011;40846;44.788;20.486;2022-12-01T06:16:33;4.88;;;1.88;;
54945;SDS011;40846;44.788;20.486;2022-12-01T06:18:59;4.05;;;1.75;;
54945;SDS011;40846;44.788;20.486;2022-12-01T06:21:25;4.13;;;1.60;;
54945;SDS011;40846;44.788;20.486;2022-12-01T06:23:51;4.05;;;2.00;;
54945;SDS011;40846;44.788;20.486;2022-12-01T06:26:16;3.30;;;1.55;;
54945;SDS011;40846;44.788;20.486;2022-12-01T06:28:42;4.28;;;1.48;;
54945;SDS011;40846;44.788;20.486;2022-12-01T06:31:08;5.50;;;2.53;;
54945;SDS011;40846;44.788;20.486;2022-12-01T06:33:34;4.20;;;2.25;;
54945;SDS011;40846;44.788;20.486;2022-12-01T06:36:00;4.75;;;1.75;;
54945;SDS011;40846;44.788;20.486;2022-12-01T06:38:33;5.38;;;1.70;;
54945;SDS011;40846;44.788;20.486;2022-12-01T06:41:01;3.28;;;1.73;;
54945;SDS011;40846;44.788;20.486;2022-12-01T06:43:27;3.10;;;1.70;;
54945;SDS011;40846;44.788;20.486;2022-12-01T06:45:53;6.15;;;2.00;;
54945;SDS011;40846;44.788;20.486;2022-12-01T06:48:19;4.78;;;1.92;;
54945;SDS011;40846;44.788;20.486;2022-12-01T06:50:45;3.20;;;1.42;;
54945;SDS011;40846;44.788;20.486;2022-12-01T06:53:13;2.88;;;1.50;;
54945;SDS011;40846;44.788;20.486;2022-12-01T06:56:00;3.78;;;1.63;;
54945;SDS011;40846;44.788;20.486;2022-12-01T06:58:36;5.13;;;1.95;;
54945;SDS011;40846;44.788;20.486;2022-12-01T07:01:12;3.20;;;1.80;;
54945;SDS011;40846;44.788;20.486;2022-12-01T07:03:38;5.15;;;1.77;;
54945;SDS011;40846;44.788;20.486;2022-12-01T07:06:04;19.98;;;2.95;;
54945;SDS011;40846;44.788;20.486;2022-12-01T07:08:30;5.78;;;1.30;;
54945;SDS011;40846;44.788;20.486;2022-12-01T07:11:01;5.82;;;2.17;;
54945;SDS011;40846;44.788;20.486;2022-12-01T07:13:28;6.57;;;2.10;;
54945;SDS011;40846;44.788;20.486;2022-12-01T07:15:54;6.13;;;1.92;;
54945;SDS011;40846;44.788;20.486;2022-12-01T07:18:22;4.38;;;1.63;;
54945;SDS011;40846;44.788;20.486;2022-12-01T07:20:48;6.53;;;2.13;;
54945;SDS011;40846;44.788;20.486;2022-12-01T07:23:14;5.82;;;1.80;;
54945;SDS011;40846;44.788;20.486;2022-12-01T07:25:40;4.28;;;2.00;;
54945;SDS011;40846;44.788;20.486;2022-12-01T07:28:06;4.93;;;2.00;;
54945;SDS011;40846;44.788;20.486;2022-12-01T07:30:32;5.38;;;2.40;;
54945;SDS011;40846;44.788;20.486;2022-12-01T07:32:58;4.25;;;2.25;;
54945;SDS011;40846;44.788;20.486;2022-12-01T07:35:24;5.38;;;2.38;;
54945;SDS011;40846;44.788;20.486;2022-12-01T07:37:54;5.72;;;2.10;;
54945;SDS011;40846;44.788;20.486;2022-12-01T07:40:20;4.93;;;2.53;;
54945;SDS011;40846;44.788;20.486;2022-12-01T07:42:47;6.80;;;2.75;;
54945;SDS011;40846;44.788;20.486;2022-12-01T07:45:13;3.42;;;1.60;;
54945;SDS011;40846;44.788;20.486;2022-12-01T07:47:38;5.78;;;2.38;;
54945;SDS011;40846;44.788;20.486;2022-12-01T07:50:04;7.32;;;1.80;;
54945;SDS011;40846;44.788;20.486;2022-12-01T07:52:30;11.63;;;2.33;;
54945;SDS011;40846;44.788;20.486;2022-12-01T07:54:56;4.97;;;1.98;;
54945;SDS011;40846;44.788;20.486;2022-12-01T07:57:22;4.65;;;2.22;;
54945;SDS011;40846;44.788;20.486;2022-12-01T07:59:48;7.97;;;1.80;;
54945;SDS011;40846;44.788;20.486;2022-12-01T08:02:14;3.47;;;1.90;;
54945;SDS011;40846;44.788;20.486;2022-12-01T08:04:39;4.65;;;2.08;;
54945;SDS011;40846;44.788;20.486;2022-12-01T08:07:06;4.22;;;1.85;;
54945;SDS011;40846;44.788;20.486;2022-12-01T08:09:32;3.45;;;1.98;;
54945;SDS011;40846;44.788;20.486;2022-12-01T08:11:58;6.10;;;2.72;;
54945;SDS011;40846;44.788;20.486;2022-12-01T08:14:23;6.78;;;1.92;;
54945;SDS011;40846;44.788;20.486;2022-12-01T08:16:49;3.13;;;1.83;;
54945;SDS011;40846;44.788;20.486;2022-12-01T08:19:15;4.38;;;2.08;;
54945;SDS011;40846;44.788;20.486;2022-12-01T08:21:41;8.20;;;2.05;;
54945;SDS011;40846;44.788;20.486;2022-12-01T08:24:07;4.18;;;1.83;;
54945;SDS011;40846;44.788;20.486;2022-12-01T08:26:34;4.18;;;1.60;;
54945;SDS011;40846;44.788;20.486;2022-12-01T08:29:00;7.25;;;4.10;;
54945;SDS011;40846;44.788;20.486;2022-12-01T08:31:26;6.32;;;2.53;;
54945;SDS011;40846;44.788;20.486;2022-12-01T08:33:54;8.02;;;2.55;;
54945;SDS011;40846;44.788;20.486;2022-12-01T08:36:21;5.65;;;2.38;;
54945;SDS011;40846;44.788;20.486;2022-12-01T08:38:48;5.10;;;2.65;;
54945;SDS011;40846;44.788;20.486;2022-12-01T08:41:17;4.32;;;1.88;;
54945;SDS011;40846;44.788;20.486;2022-12-01T08:43:43;6.97;;;1.98;;
54945;SDS011;40846;44.788;20.486;2022-12-01T08:46:12;19.90;;;6.20;;
54945;SDS011;40846;44.788;20.486;2022-12-01T08:48:41;4.90;;;2.05;;
54945;SDS011;40846;44.788;20.486;2022-12-01T08:51:08;3.53;;;1.80;;
54945;SDS011;40846;44.788;20.486;2022-12-01T08:53:42;4.63;;;2.15;;
54945;SDS011;40846;44.788;20.486;2022-12-01T08:56:11;7.22;;;2.40;;
54945;SDS011;40846;44.788;20.486;2022-12-01T08:58:41;6.45;;;2.85;;
54945;SDS011;40846;44.788;20.486;2022-12-01T09:01:09;6.57;;;2.92;;
54945;SDS011;40846;44.788;20.486;2022-12-01T09:03:36;7.10;;;2.72;;
54945;SDS011;40846;44.788;20.486;2022-12-01T09:06:05;10.52;;;3.42;;
54945;SDS011;40846;44.788;20.486;2022-12-01T09:08:32;7.20;;;3.05;;
54945;SDS011;40846;44.788;20.486;2022-12-01T09:11:00;10.40;;;4.38;;
54945;SDS011;40846;44.788;20.486;2022-12-01T09:13:28;7.35;;;3.40;;
54945;SDS011;40846;44.788;20.486;2022-12-01T09:15:54;6.55;;;2.78;;
54945;SDS011;40846;44.788;20.486;2022-12-01T09:18:25;8.70;;;2.92;;
54945;SDS011;40846;44.788;20.486;2022-12-01T09:20:51;5.95;;;2.78;;
54945;SDS011;40846;44.788;20.486;2022-12-01T09:23:18;7.78;;;2.90;;
54945;SDS011;40846;44.788;20.486;2022-12-01T09:25:44;7.60;;;3.28;;
54945;SDS011;40846;44.788;20.486;2022-12-01T09:28:10;6.97;;;3.22;;
54945;SDS011;40846;44.788;20.486;2022-12-01T09:30:36;8.85;;;3.65;;
54945;SDS011;40846;44.788;20.486;2022-12-01T09:33:01;8.00;;;4.07;;
54945;SDS011;40846;44.788;20.486;2022-12-01T09:35:28;10.35;;;3.65;;
54945;SDS011;40846;44.788;20.486;2022-12-01T09:37:58;8.25;;;3.63;;
54945;SDS011;40846;44.788;20.486;2022-12-01T09:40:25;8.15;;;3.78;;
54945;SDS011;40846;44.788;20.486;2022-12-01T09:42:55;7.50;;;3.85;;
54945;SDS011;40846;44.788;20.486;2022-12-01T09:45:25;9.32;;;3.72;;
54945;SDS011;40846;44.788;20.486;2022-12-01T09:47:55;8.75;;;3.38;;
54945;SDS011;40846;44.788;20.486;2022-12-01T09:50:23;8.30;;;4.13;;
54945;SDS011;40846;44.788;20.486;2022-12-01T09:52:50;8.32;;;3.20;;
54945;SDS011;40846;44.788;20.486;2022-12-01T09:55:23;7.30;;;3.15;;
54945;SDS011;40846;44.788;20.486;2022-12-01T09:57:54;6.78;;;3.08;;
54945;SDS011;40846;44.788;20.486;2022-12-01T10:00:24;9.25;;;3.55;;
54945;SDS011;40846;44.788;20.486;2022-12-01T10:06:04;4.50;;;2.30;;
54945;SDS011;40846;44.788;20.486;2022-12-01T10:08:35;6.00;;;3.15;;
54945;SDS011;40846;44.788;20.486;2022-12-01T10:11:15;8.68;;;3.13;;
54945;SDS011;40846;44.788;20.486;2022-12-01T10:13:58;9.07;;;3.72;;
54945;SDS011;40846;44.788;20.486;2022-12-01T10:19:24;6.97;;;2.83;;
54945;SDS011;40846;44.788;20.486;2022-12-01T10:22:24;6.95;;;3.17;;
54945;SDS011;40846;44.788;20.486;2022-12-01T10:32:39;16.77;;;3.85;;
54945;SDS011;40846;44.788;20.486;2022-12-01T10:35:10;9.23;;;3.50;;
54945;SDS011;40846;44.788;20.486;2022-12-01T10:37:40;8.38;;;3.22;;
54945;SDS011;40846;44.788;20.486;2022-12-01T10:40:11;5.00;;;2.80;;
54945;SDS011;40846;44.788;20.486;2022-12-01T10:42:42;6.80;;;3.33;;
54945;SDS011;40846;44.788;20.486;2022-12-01T10:50:42;8.48;;;4.03;;
54945;SDS011;40846;44.788;20.486;2022-12-01T10:58:44;7.40;;;3.72;;
54945;SDS011;40846;44.788;20.486;2022-12-01T11:01:25;11.63;;;4.20;;
54945;SDS011;40846;44.788;20.486;2022-12-01T11:04:02;11.98;;;5.03;;
54945;SDS011;40846;44.788;20.486;2022-12-01T11:09:19;10.60;;;4.68;;
54945;SDS011;40846;44.788;20.486;2022-12-01T11:11:52;12.25;;;5.47;;
54945;SDS011;40846;44.788;20.486;2022-12-01T11:14:25;12.05;;;5.43;;
54945;SDS011;40846;44.788;20.486;2022-12-01T11:17:28;41.67;;;14.32;;
54945;SDS011;40846;44.788;20.486;2022-12-01T11:19:57;13.73;;;5.90;;
54945;SDS011;40846;44.788;20.486;2022-12-01T11:22:25;16.20;;;7.53;;
54945;SDS011;40846;44.788;20.486;2022-12-01T11:27:49;13.75;;;5.50;;
54945;SDS011;40846;44.788;20.486;2022-12-01T11:30:25;10.18;;;4.28;;
54945;SDS011;40846;44.788;20.486;2022-12-01T11:32:57;10.47;;;5.37;;
54945;SDS011;40846;44.788;20.486;2022-12-01T11:35:25;8.25;;;4.10;;
54945;SDS011;40846;44.788;20.486;2022-12-01T11:37:55;8.63;;;4.43;;
54945;SDS011;40846;44.788;20.486;2022-12-01T11:40:23;9.98;;;4.47;;
54945;SDS011;40846;44.788;20.486;2022-12-01T11:42:55;12.07;;;5.68;;
54945;SDS011;40846;44.788;20.486;2022-12-01T11:50:31;12.77;;;5.28;;
54945;SDS011;40846;44.788;20.486;2022-12-01T11:52:59;8.93;;;4.38;;
54945;SDS011;40846;44.788;20.486;2022-12-01T11:55:26;11.43;;;5.18;;
54945;SDS011;40846;44.788;20.486;2022-12-01T11:57:54;14.48;;;4.32;;
54945;SDS011;40846;44.788;20.486;2022-12-01T12:00:28;11.00;;;4.57;;
54945;SDS011;40846;44.788;20.486;2022-12-01T12:15:18;8.65;;;4.25;;
54945;SDS011;40846;44.788;20.486;2022-12-01T12:23:16;14.25;;;5.50;;
54945;SDS011;40846;44.788;20.486;2022-12-01T12:26:08;13.38;;;5.63;;
54945;SDS011;40846;44.788;20.486;2022-12-01T12:40:05;14.13;;;6.45;;
54945;SDS011;40846;44.788;20.486;2022-12-01T12:53:53;11.60;;;5.03;;
54945;SDS011;40846;44.788;20.486;2022-12-01T12:56:37;10.88;;;4.57;;
54945;SDS011;40846;44.788;20.486;2022-12-01T12:59:11;10.55;;;4.93;;
54945;SDS011;40846;44.788;20.486;2022-12-01T13:01:57;13.57;;;4.95;;
54945;SDS011;40846;44.788;20.486;2022-12-01T13:10:19;16.42;;;5.93;;
54945;SDS011;40846;44.788;20.486;2022-12-01T13:12:52;13.68;;;6.28;;
54945;SDS011;40846;44.788;20.486;2022-12-01T13:15:37;10.98;;;5.40;;
54945;SDS011;40846;44.788;20.486;2022-12-01T13:18:13;13.07;;;5.82;;
54945;SDS011;40846;44.788;20.486;2022-12-01T13:20:48;12.25;;;5.75;;
54945;SDS011;40846;44.788;20.486;2022-12-01T13:23:15;9.40;;;5.07;;
54945;SDS011;40846;44.788;20.486;2022-12-01T13:25:45;10.32;;;5.03;;
54945;SDS011;40846;44.788;20.486;2022-12-01T13:28:16;13.63;;;5.45;;
54945;SDS011;40846;44.788;20.486;2022-12-01T13:31:03;18.42;;;5.47;;
54945;SDS011;40846;44.788;20.486;2022-12-01T13:33:31;33.38;;;11.10;;
54945;SDS011;40846;44.788;20.486;2022-12-01T13:35:57;12.73;;;5.85;;
54945;SDS011;40846;44.788;20.486;2022-12-01T13:38:26;11.77;;;5.20;;
54945;SDS011;40846;44.788;20.486;2022-12-01T13:46:23;15.77;;;7.28;;
54945;SDS011;40846;44.788;20.486;2022-12-01T13:48:53;14.63;;;7.15;;
54945;SDS011;40846;44.788;20.486;2022-12-01T13:51:21;15.38;;;7.63;;
54945;SDS011;40846;44.788;20.486;2022-12-01T13:54:00;15.15;;;6.97;;
54945;SDS011;40846;44.788;20.486;2022-12-01T13:56:58;17.10;;;6.75;;
54945;SDS011;40846;44.788;20.486;2022-12-01T14:02:29;13.68;;;7.25;;
54945;SDS011;40846;44.788;20.486;2022-12-01T14:07:49;18.85;;;7.28;;
54945;SDS011;40846;44.788;20.486;2022-12-01T14:13:00;15.63;;;8.25;;
54945;SDS011;40846;44.788;20.486;2022-12-01T14:18:04;15.40;;;7.78;;
54945;SDS011;40846;44.788;20.486;2022-12-01T14:20:50;22.83;;;8.38;;
54945;SDS011;40846;44.788;20.486;2022-12-01T14:34:05;22.77;;;9.63;;
54945;SDS011;40846;44.788;20.486;2022-12-01T14:36:38;19.27;;;9.73;;
54945;SDS011;40846;44.788;20.486;2022-12-01T14:39:25;20.20;;;10.25;;
54945;SDS011;40846;44.788;20.486;2022-12-01T14:42:11;24.48;;;10.15;;
54945;SDS011;40846;44.788;20.486;2022-12-01T14:45:04;26.35;;;10.98;;
54945;SDS011;40846;44.788;20.486;2022-12-01T14:47:46;25.25;;;12.82;;
54945;SDS011;40846;44.788;20.486;2022-12-01T14:52:46;25.17;;;11.35;;
54945;SDS011;40846;44.788;20.486;2022-12-01T14:55:21;21.13;;;10.10;;
54945;SDS011;40846;44.788;20.486;2022-12-01T14:57:49;23.77;;;11.63;;
54945;SDS011;40846;44.788;20.486;2022-12-01T15:00:20;22.20;;;10.77;;
54945;SDS011;40846;44.788;20.486;2022-12-01T15:05:24;24.38;;;11.60;;
54945;SDS011;40846;44.788;20.486;2022-12-01T15:07:56;24.30;;;11.73;;
54945;SDS011;40846;44.788;20.486;2022-12-01T15:12:53;21.42;;;11.73;;
54945;SDS011;40846;44.788;20.486;2022-12-01T15:15:24;27.38;;;13.95;;
54945;SDS011;40846;44.788;20.486;2022-12-01T15:17:51;28.37;;;13.17;;
54945;SDS011;40846;44.788;20.486;2022-12-01T15:20:30;30.15;;;13.15;;
54945;SDS011;40846;44.788;20.486;2022-12-01T15:22:58;26.88;;;11.98;;
54945;SDS011;40846;44.788;20.486;2022-12-01T15:25:30;25.85;;;11.32;;
54945;SDS011;40846;44.788;20.486;2022-12-01T15:30:49;20.95;;;10.88;;
54945;SDS011;40846;44.788;20.486;2022-12-01T15:33:21;21.52;;;10.60;;
54945;SDS011;40846;44.788;20.486;2022-12-01T15:36:11;30.73;;;11.38;;
54945;SDS011;40846;44.788;20.486;2022-12-01T15:38:39;28.92;;;11.95;;
54945;SDS011;40846;44.788;20.486;2022-12-01T15:41:16;29.42;;;12.05;;
54945;SDS011;40846;44.788;20.486;2022-12-01T15:44:13;25.98;;;12.60;;
54945;SDS011;40846;44.788;20.486;2022-12-01T15:46:41;24.23;;;11.70;;
54945;SDS011;40846;44.788;20.486;2022-12-01T15:49:18;23.30;;;11.63;;
54945;SDS011;40846;44.788;20.486;2022-12-01T15:51:48;18.58;;;10.40;;
54945;SDS011;40846;44.788;20.486;2022-12-01T15:54:23;19.17;;;10.13;;
54945;SDS011;40846;44.788;20.486;2022-12-01T15:56:52;23.27;;;10.23;;
54945;SDS011;40846;44.788;20.486;2022-12-01T16:02:04;23.52;;;10.00;;
54945;SDS011;40846;44.788;20.486;2022-12-01T16:04:31;18.48;;;9.20;;
54945;SDS011;40846;44.788;20.486;2022-12-01T16:07:01;22.98;;;9.30;;
54945;SDS011;40846;44.788;20.486;2022-12-01T16:09:35;26.27;;;10.90;;
54945;SDS011;40846;44.788;20.486;2022-12-01T16:14:53;23.27;;;10.48;;
54945;SDS011;40846;44.788;20.486;2022-12-01T16:20:24;22.10;;;9.68;;
54945;SDS011;40846;44.788;20.486;2022-12-01T16:23:14;18.65;;;8.00;;
54945;SDS011;40846;44.788;20.486;2022-12-01T16:25:44;16.33;;;8.15;;
54945;SDS011;40846;44.788;20.486;2022-12-01T16:28:29;18.63;;;8.18;;
54945;SDS011;40846;44.788;20.486;2022-12-01T16:30:58;16.92;;;6.90;;
54945;SDS011;40846;44.788;20.486;2022-12-01T16:33:24;15.57;;;7.20;;
54945;SDS011;40846;44.788;20.486;2022-12-01T16:35:51;14.25;;;6.30;;
54945;SDS011;40846;44.788;20.486;2022-12-01T16:38:19;12.25;;;5.72;;
54945;SDS011;40846;44.788;20.486;2022-12-01T16:40:50;14.00;;;5.38;;
54945;SDS011;40846;44.788;20.486;2022-12-01T16:43:18;12.20;;;6.13;;
54945;SDS011;40846;44.788;20.486;2022-12-01T16:45:46;14.55;;;7.75;;
54945;SDS011;40846;44.788;20.486;2022-12-01T16:48:16;21.13;;;9.00;;
54945;SDS011;40846;44.788;20.486;2022-12-01T16:50:44;13.57;;;6.53;;
54945;SDS011;40846;44.788;20.486;2022-12-01T16:53:14;16.05;;;6.13;;
54945;SDS011;40846;44.788;20.486;2022-12-01T16:55:51;15.38;;;8.57;;
54945;SDS011;40846;44.788;20.486;2022-12-01T16:58:19;16.33;;;7.13;;
54945;SDS011;40846;44.788;20.486;2022-12-01T17:00:45;18.48;;;8.00;;
54945;SDS011;40846;44.788;20.486;2022-12-01T17:03:17;17.42;;;7.63;;
54945;SDS011;40846;44.788;20.486;2022-12-01T17:05:45;19.23;;;7.95;;
54945;SDS011;40846;44.788;20.486;2022-12-01T17:08:12;18.38;;;8.38;;
54945;SDS011;40846;44.788;20.486;2022-12-01T17:10:40;18.95;;;7.80;;
54945;SDS011;40846;44.788;20.486;2022-12-01T17:13:06;20.85;;;8.30;;
54945;SDS011;40846;44.788;20.486;2022-12-01T17:15:32;20.63;;;8.00;;
54945;SDS011;40846;44.788;20.486;2022-12-01T17:17:58;16.85;;;7.82;;
54945;SDS011;40846;44.788;20.486;2022-12-01T17:20:24;16.55;;;7.80;;
54945;SDS011;40846;44.788;20.486;2022-12-01T17:22:50;15.38;;;7.72;;
54945;SDS011;40846;44.788;20.486;2022-12-01T17:25:15;21.15;;;8.07;;
54945;SDS011;40846;44.788;20.486;2022-12-01T17:27:41;16.30;;;7.28;;
54945;SDS011;40846;44.788;20.486;2022-12-01T17:30:08;18.33;;;6.53;;
54945;SDS011;40846;44.788;20.486;2022-12-01T17:32:35;17.25;;;7.45;;
54945;SDS011;40846;44.788;20.486;2022-12-01T17:35:01;18.83;;;7.53;;